Главная страница
METAR-TAF:

METAR-TAF

Аэропорты :

Трольхеттан-Венерсборг, Швеция

широта: 58-19N, долгота: 012-21E, высота над уровнем моря: 41 м

Текущие метеонаблюдения

Эта сводка был подготовлена 23 минут назад, в 19:50 UTC
Ветер 5 Узел от северный
Температура 16°C
Влажность 82%
Давление 1014 hPa
Видимость 10 км и более

METAR: ESGT 121950Z AUTO 01005KT 9999 NCD 16/13 Q1014

Время: 22:13 (20:13 UTC)


TAF: отсутствует

Метеонаблюдения и прогнозы для более 4000 аэропортов (сводки METAR и TAF).

Имеющиеся станции представлены на карте желтыми и красными точками.

Чтобы увидеть название станции, наведите на нее мышь.

Затем щелкните, чтобы увидеть метеонаблюдения и метеопрогнозы.

Управление картой: чтобы увеличить масштаб, щелкните зеленые кнопки с черным крестиком; чтобы уменьшить масштаб, щелкните зеленую кнопку с тире; для просмотра соседних карт щелкайте зеленые стрелки.


METAR-TAF: